Fort Benning, GA (31905)

7:43 PM EST on February 10, 2016 (GMT -0500)
Hilton Heights- Lynda Lane | | Change Station
CLOSE
Current Station
Personal Weather Station
Location: Columbus, GA
Elevation: 387 ft
Nearby Weather Stations

Elev 387 ft 32.49 °N, 84.95 °W | Updated 3 seconds ago

Clear
Clear
41.5 °F
Feels Like 42 °F
N
0.2
Wind Variable Wind from South
Gusts 2.5 mph

Today
High -- | Low -- °F
--% Chance of Precip.
Yesterday
High -- | Low -- °F
Precip. -- in
Pressure 30.19 in
Visibility 10.0 miles
Clouds Clear
Windchill 42 °F
Dew Point 31 °F
Humidity 66%
Rainfall 0.00 in
Snow Depth Not available.
7:27 AM 6:20 PM
Waxing Crescent, 8% visible
METAR KCSG 102351Z 28006KT 10SM CLR 05/M13 A3018 RMK AO2 SLP223 T00501128 10072 20033 53007
Pressure 30.19 in
Visibility 10.0 miles
Clouds Clear
Windchill 42 °F
Dew Point 31 °F
Humidity 66%
Rainfall 0.00 in
Snow Depth Not available.
7:27 AM 6:20 PM
Waxing Crescent, 8% visible
METAR KCSG 102351Z 28006KT 10SM CLR 05/M13 A3018 RMK AO2 SLP223 T00501128 10072 20033 53007

10-Day Weather Forecast

Almanac

Astronomy

Feb. 10, 2016 Rise Set
Actual Time
Civil Twilight
Nautical Twilight
Astronomical Twilight
Moon
Length of Visible Light
Length of Day
Tomorrow will be .
, % of the Moon is Illuminated

Today's Extremes

State Highs State Lows

Community

WunderPhotos

Upload Photos

1,891,948 photos uploaded!

WunderBlog® & News

Nearby

Air Quality

  Air Quality AQ Index Pollutant
Not available.

Snow Depth

Station Depth Elevation

Earthquake Activity

City Distance Mag. Time & Date
Minimum magnitude displayed is 2.5.

Coastal Water Temperatures

Place Temperature

Stations

Nearby Weather Stations

Station Location Temp. Windchill Dew Point Humidity Wind Precip. Elev Updated Type
                   

Watches & Warnings

There are currently no watches in effect.